Impacts METAR Board
IDs:

KCLE - Cleveland/Hopkins In, OH, US

Updated at: 2100 UTC 06 Dec 2019
Potential Impact None Slight Moderate High
Time 06/09Z 06/10Z 06/11Z 06/12Z 06/13Z 06/14Z 06/15Z 06/16Z 06/17Z 06/18Z 06/19Z 06/20Z 06/21Z
Temp41 42 43 43 43 45 46 44 43 40 41 40 39
Dewpt29 29 30 31 31 34 35 35 35 34 30 27 27
Altim29.99 29.97 29.95 29.95 29.96 29.98 30.02 30.05 30.07 30.10 30.13 30.15 30.19
VIS10 10 10 10 10 10 10 10 10 10 10 10 10
CIG75 100 100 110 110 200 28 22 18 16 25 34 39
CoverOVCOVCOVCOVCOVCOVCOVCOVCOVCOVCBKNOVCOVC
FltCatVFRVFRVFRVFRVFRVFRMVFRMVFRMVFRMVFRMVFRVFRVFR
WX--------------------------
WDir200200200200220250280290300330330330320
WSpd9 9 10 10 6 8 13 14 12 16 12 14 11
WGst-- -- -- -- -- -- -- -- -- 22 19 21 18
Raw hourly METARs
KCLE 060851Z 20009KT 10SM BKN075 OVC090 05/M02 A2999 RMK AO2 SLP159 T00501017 56014
KCLE 060951Z 20009KT 10SM FEW080 OVC100 06/M02 A2997 RMK AO2 SLP155 T00561017
KCLE 061051Z 20010KT 10SM OVC100 06/M01 A2995 RMK AO2 SLP149 T00611011
KCLE 061151Z 20010KT 10SM OVC110 06/M01 A2995 RMK AO2 SLP146 T00611006 10067 20028 56014
KCLE 061251Z 22006KT 10SM OVC110 06/M01 A2996 RMK AO2 SLP150 T00611006
KCLE 061351Z 25008KT 10SM SCT110 OVC200 07/01 A2998 RMK AO2 SLP157 T00720011
KCLE 061451Z 28013KT 10SM BKN028 BKN095 OVC200 08/02 A3002 RMK AO2 SLP170 T00780017 51019
KCLE 061551Z 29014KT 10SM BKN022 OVC028 07/02 A3005 RMK AO2 SLP181 T00670017
KCLE 061651Z 30012KT 10SM OVC018 06/02 A3007 RMK AO2 SLP189 T00610017
KCLE 061751Z 33016G22KT 10SM OVC016 04/01 A3010 RMK AO2 SLP199 T00440011 10083 20044 51028
KCLE 061851Z 33012G19KT 10SM FEW018 BKN025 05/M01 A3013 RMK AO2 PK WND 33026/1802 SLP207 T00501011
KCLE 061951Z 33014G21KT 10SM FEW028 OVC034 04/M03 A3015 RMK AO2 SLP216 T00441028
KCLE 062051Z 32011G18KT 10SM OVC039 04/M03 A3019 RMK AO2 SLP228 T00391028 53029



Page loaded:  21:19 UTC  |   01:19 PM Pacific  |   02:19 PM Mountain  |   03:19 PM Central  |   04:19 PM Eastern

 

ADVISORIES

FORECASTS

FORECASTS

OBSERVATIONS

USER TOOLS

ABOUT US